Time;durP1;ratioP1;P1;durP2;ratioP2;P2;SDS_P1;SDS_P2;PMS_P1;PMS_P2;Temp;Humidity;BMP_temperature;BMP_pressure;BME280_temperature;BME280_humidity;BME280_pressure;Samples;Min_cycle;Max_cycle;Signal;HPM_P1;HPM_P2
2022/11/13 00:02:04;;;;;;;;;0.00;0.00;;;;;;;;4991984;28;8811;-74
2022/11/13 00:04:30;;;;;;;;;0.50;0.50;;;;;;;;4992282;28;8802;-73
2022/11/13 00:06:55;;;;;;;;;0.50;0.50;;;;;;;;4992325;28;8794;-74
2022/11/13 00:09:20;;;;;;;;;1.00;1.00;;;;;;;;4991905;28;8827;-74
2022/11/13 00:11:46;;;;;;;;;0.25;0.00;;;;;;;;4992137;28;8837;-75
2022/11/13 00:14:11;;;;;;;;;1.75;0.25;;;;;;;;4992302;28;8857;-75
2022/11/13 00:16:36;;;;;;;;;1.00;1.00;;;;;;;;5006752;28;8818;-75
2022/11/13 00:19:01;;;;;;;;;0.00;0.00;;;;;;;;4992192;28;8842;-75
2022/11/13 00:21:27;;;;;;;;;1.00;1.00;;;;;;;;4992106;28;8838;-74
2022/11/13 00:23:53;;;;;;;;;0.00;0.00;;;;;;;;4991846;28;8828;-74
2022/11/13 00:26:19;;;;;;;;;0.00;0.00;;;;;;;;4991815;28;9544;-76
2022/11/13 00:28:45;;;;;;;;;0.75;0.00;;;;;;;;4991562;28;8842;-75
2022/11/13 00:31:12;;;;;;;;;1.25;1.25;;;;;;;;4991844;28;11444;-75
2022/11/13 00:33:37;;;;;;;;;2.00;2.00;;;;;;;;4990513;28;8842;-75
2022/11/13 00:36:07;;;;;;;;;2.75;2.00;;;;;;;;4991416;28;11499;-75
2022/11/13 00:38:32;;;;;;;;;2.75;2.00;;;;;;;;4990030;28;8965;-74
2022/11/13 00:40:58;;;;;;;;;3.50;3.00;;;;;;;;4991334;28;11504;-76
2022/11/13 00:43:23;;;;;;;;;2.00;2.00;;;;;;;;4991859;28;8798;-75
2022/11/13 00:45:48;;;;;;;;;2.50;1.75;;;;;;;;4991516;28;8799;-75
2022/11/13 00:48:13;;;;;;;;;4.00;2.00;;;;;;;;4991285;28;8826;-75
2022/11/13 00:50:39;;;;;;;;;2.50;1.50;;;;;;;;4991056;28;8795;-75
2022/11/13 00:53:04;;;;;;;;;1.50;1.00;;;;;;;;4990975;28;9016;-75
2022/11/13 00:55:29;;;;;;;;;0.75;0.00;;;;;;;;5005942;28;8811;-75
2022/11/13 00:57:54;;;;;;;;;1.75;1.00;;;;;;;;4990880;28;8798;-74
2022/11/13 01:00:20;;;;;;;;;1.00;1.00;;;;;;;;4991329;28;9564;-74
2022/11/13 01:02:46;;;;;;;;;2.25;1.00;;;;;;;;4989640;28;8814;-74
2022/11/13 01:05:12;;;;;;;;;5.25;4.00;;;;;;;;4989670;28;8822;-74
2022/11/13 01:07:37;;;;;;;;;2.00;2.00;;;;;;;;4989263;28;8924;-74
2022/11/13 01:10:05;;;;;;;;;2.00;1.00;;;;;;;;4990474;28;8836;-75
2022/11/13 01:12:31;;;;;;;;;1.00;1.00;;;;;;;;4990781;28;8803;-75
2022/11/13 01:14:56;;;;;;;;;2.50;1.50;;;;;;;;5005863;28;11447;-74
2022/11/13 01:17:22;;;;;;;;;1.00;1.00;;;;;;;;4990836;28;8837;-75
2022/11/13 01:19:47;;;;;;;;;4.50;1.75;;;;;;;;4990785;28;8833;-74
2022/11/13 01:22:13;;;;;;;;;2.75;2.75;;;;;;;;4990601;28;8782;-74
2022/11/13 01:24:38;;;;;;;;;2.75;2.50;;;;;;;;4991016;28;8913;-74
2022/11/13 01:27:04;;;;;;;;;3.50;3.00;;;;;;;;5005135;28;8844;-74
2022/11/13 01:29:29;;;;;;;;;2.00;2.00;;;;;;;;4990697;28;8912;-74
2022/11/13 01:31:55;;;;;;;;;2.50;2.50;;;;;;;;5005422;28;9588;-74
2022/11/13 01:34:20;;;;;;;;;2.25;2.25;;;;;;;;4990682;28;8806;-74
2022/11/13 01:36:46;;;;;;;;;5.50;3.00;;;;;;;;4990460;28;8807;-75
2022/11/13 01:39:11;;;;;;;;;3.75;3.00;;;;;;;;4990476;28;8806;-74
2022/11/13 01:41:36;;;;;;;;;3.50;3.00;;;;;;;;4990720;28;8803;-74
2022/11/13 01:44:02;;;;;;;;;3.00;3.00;;;;;;;;4990496;28;8799;-74
2022/11/13 01:46:30;;;;;;;;;4.75;3.00;;;;;;;;4990161;28;8825;-75
2022/11/13 01:49:11;;;;;;;;;3.00;3.00;;;;;;;;4990507;28;8842;-75
2022/11/13 01:51:38;;;;;;;;;5.00;3.00;;;;;;;;4990322;28;11438;-75
2022/11/13 01:54:05;;;;;;;;;3.00;2.00;;;;;;;;4988794;28;12311;-75
2022/11/13 01:56:30;;;;;;;;;4.75;2.00;;;;;;;;4990328;28;11465;-75
2022/11/13 01:59:12;;;;;;;;;1.75;1.75;;;;;;;;4990372;28;11480;-75
2022/11/13 02:01:38;;;;;;;;;2.00;2.00;;;;;;;;4990680;28;8811;-75
2022/11/13 02:04:03;;;;;;;;;2.25;2.00;;;;;;;;4990312;28;12198;-75
2022/11/13 02:06:49;;;;;;;;;1.75;1.75;;;;;;;;4990690;28;8806;-75
2022/11/13 02:09:16;;;;;;;;;2.00;2.00;;;;;;;;4990153;28;8888;-76
2022/11/13 02:11:42;;;;;;;;;2.00;2.00;;;;;;;;4990305;28;11541;-76
2022/11/13 02:14:08;;;;;;;;;3.25;2.75;;;;;;;;4990261;28;11584;-74
2022/11/13 02:16:34;;;;;;;;;2.00;2.00;;;;;;;;4989979;28;8821;-76
2022/11/13 02:19:02;;;;;;;;;1.00;1.00;;;;;;;;4989583;28;11419;-74
2022/11/13 02:21:27;;;;;;;;;2.00;1.00;;;;;;;;4990174;28;11416;-75
2022/11/13 02:23:58;;;;;;;;;2.00;2.00;;;;;;;;4990192;28;11440;-76
2022/11/13 02:26:25;;;;;;;;;1.50;1.00;;;;;;;;4990317;28;8801;-75
2022/11/13 02:28:50;;;;;;;;;1.00;1.00;;;;;;;;4990010;28;12224;-76
2022/11/13 02:31:15;;;;;;;;;3.00;1.25;;;;;;;;4990324;28;11441;-75
2022/11/13 02:33:41;;;;;;;;;1.50;1.25;;;;;;;;5004914;28;8940;-75
2022/11/13 02:36:08;;;;;;;;;5.00;1.00;;;;;;;;4990017;28;8803;-75
2022/11/13 02:38:34;;;;;;;;;2.00;2.00;;;;;;;;4989526;28;8915;-75
2022/11/13 02:41:00;;;;;;;;;2.25;2.25;;;;;;;;4989782;28;11473;-75
2022/11/13 02:43:25;;;;;;;;;2.50;2.00;;;;;;;;4990057;28;11419;-75
2022/11/13 02:45:50;;;;;;;;;2.50;2.50;;;;;;;;4989766;28;8791;-76
2022/11/13 02:48:16;;;;;;;;;2.00;2.00;;;;;;;;5004384;28;8842;-74
2022/11/13 02:50:41;;;;;;;;;2.00;1.00;;;;;;;;4989804;28;8791;-75
2022/11/13 02:53:06;;;;;;;;;2.00;2.00;;;;;;;;4989802;28;8846;-75
2022/11/13 02:55:32;;;;;;;;;1.00;1.00;;;;;;;;4990166;28;8810;-74
2022/11/13 02:57:57;;;;;;;;;2.00;1.75;;;;;;;;4993388;28;8819;-74
2022/11/13 03:00:22;;;;;;;;;3.00;3.00;;;;;;;;4993669;28;8849;-75
2022/11/13 03:02:47;;;;;;;;;2.00;2.00;;;;;;;;4992942;28;8822;-75
2022/11/13 03:05:13;;;;;;;;;2.50;2.50;;;;;;;;4993191;28;8794;-74
2022/11/13 03:07:38;;;;;;;;;2.25;2.25;;;;;;;;5008168;28;8892;-75
2022/11/13 03:10:04;;;;;;;;;3.50;3.50;;;;;;;;4993143;28;8790;-74
2022/11/13 03:12:29;;;;;;;;;4.00;2.00;;;;;;;;4992798;28;9501;-74
2022/11/13 03:14:54;;;;;;;;;4.00;4.00;;;;;;;;4993234;28;8866;-75
2022/11/13 03:17:20;;;;;;;;;9.00;5.00;;;;;;;;4992940;28;8926;-75
2022/11/13 03:19:45;;;;;;;;;6.00;4.25;;;;;;;;4992981;28;8811;-75
2022/11/13 03:22:10;;;;;;;;;9.00;5.00;;;;;;;;4993033;28;8795;-75
2022/11/13 03:24:35;;;;;;;;;3.75;3.75;;;;;;;;4993082;28;8881;-75
2022/11/13 03:27:01;;;;;;;;;3.25;3.25;;;;;;;;4993152;28;8823;-75
2022/11/13 03:29:26;;;;;;;;;3.50;3.50;;;;;;;;5007813;28;8827;-75
2022/11/13 03:31:51;;;;;;;;;4.00;2.00;;;;;;;;4992351;28;8905;-75
2022/11/13 03:34:16;;;;;;;;;4.00;3.25;;;;;;;;4993086;28;8836;-74
2022/11/13 03:36:42;;;;;;;;;3.00;3.00;;;;;;;;4992681;28;8802;-74
2022/11/13 03:39:08;;;;;;;;;6.00;4.00;;;;;;;;4992617;28;8833;-75
2022/11/13 03:41:33;;;;;;;;;4.25;4.25;;;;;;;;4992737;28;8798;-76
2022/11/13 03:43:58;;;;;;;;;5.00;3.25;;;;;;;;5007743;28;8904;-76
2022/11/13 03:46:24;;;;;;;;;4.00;3.00;;;;;;;;5007442;28;8819;-75
2022/11/13 03:48:49;;;;;;;;;4.50;4.00;;;;;;;;4992512;28;8837;-75
2022/11/13 03:51:14;;;;;;;;;2.75;2.00;;;;;;;;4992095;28;9532;-75
2022/11/13 03:53:39;;;;;;;;;6.25;6.25;;;;;;;;4992652;28;8802;-75
2022/11/13 03:56:05;;;;;;;;;9.00;6.00;;;;;;;;4992445;28;8786;-75
2022/11/13 03:58:30;;;;;;;;;7.00;7.00;;;;;;;;4992604;28;8806;-75
2022/11/13 04:00:56;;;;;;;;;5.00;4.25;;;;;;;;5007829;28;8850;-74
2022/11/13 04:03:22;;;;;;;;;3.00;3.00;;;;;;;;4992252;28;9632;-74
2022/11/13 04:05:48;;;;;;;;;5.50;5.00;;;;;;;;4992199;28;8937;-75
2022/11/13 04:08:13;;;;;;;;;5.50;5.00;;;;;;;;4991755;28;8842;-75
2022/11/13 04:10:39;;;;;;;;;5.00;5.00;;;;;;;;4992168;28;11707;-75
2022/11/13 04:13:04;;;;;;;;;6.25;5.50;;;;;;;;5007284;28;8810;-74
2022/11/13 04:15:30;;;;;;;;;5.25;5.00;;;;;;;;4992160;28;8841;-74
2022/11/13 04:17:55;;;;;;;;;6.50;5.75;;;;;;;;4991584;28;8791;-74
2022/11/13 04:20:20;;;;;;;;;5.00;3.75;;;;;;;;4991968;28;8783;-75
2022/11/13 04:22:46;;;;;;;;;6.50;6.50;;;;;;;;4991962;28;8819;-74
2022/11/13 04:25:11;;;;;;;;;6.00;5.25;;;;;;;;4991423;28;8845;-74
2022/11/13 04:27:36;;;;;;;;;3.00;3.00;;;;;;;;4991823;28;8911;-74
2022/11/13 04:30:03;;;;;;;;;5.00;3.00;;;;;;;;4992200;28;8815;-75
2022/11/13 04:32:28;;;;;;;;;7.00;5.00;;;;;;;;4991691;28;8810;-75
2022/11/13 04:34:54;;;;;;;;;5.50;4.50;;;;;;;;4992054;28;11477;-75
2022/11/13 04:37:19;;;;;;;;;5.75;5.50;;;;;;;;4992179;28;8795;-75
2022/11/13 04:39:45;;;;;;;;;3.75;3.00;;;;;;;;4992015;28;8818;-75
2022/11/13 04:44:54;;;;;;;;;5.25;5.00;;;;;;;;5003097;28;8786;-75
2022/11/13 04:47:20;;;;;;;;;7.50;6.00;;;;;;;;4997361;28;11501;-76
2022/11/13 04:49:45;;;;;;;;;6.50;6.50;;;;;;;;4992872;28;8933;-75
2022/11/13 04:52:10;;;;;;;;;8.50;6.00;;;;;;;;4992111;28;8810;-75
2022/11/13 04:54:35;;;;;;;;;5.25;5.00;;;;;;;;4991934;28;8837;-75
2022/11/13 04:57:01;;;;;;;;;6.75;6.00;;;;;;;;4991678;28;8896;-75
2022/11/13 04:59:28;;;;;;;;;7.00;6.00;;;;;;;;4991150;28;8900;-75
2022/11/13 05:01:54;;;;;;;;;6.00;6.00;;;;;;;;4997508;28;8880;-75
2022/11/13 05:04:20;;;;;;;;;6.50;5.50;;;;;;;;4977703;28;11521;-75
2022/11/13 05:06:45;;;;;;;;;8.75;5.00;;;;;;;;4971627;28;8797;-73
2022/11/13 05:09:10;;;;;;;;;6.50;4.50;;;;;;;;4970895;28;8829;-73
2022/11/13 05:11:36;;;;;;;;;6.00;5.00;;;;;;;;4971369;28;9700;-73
2022/11/13 05:14:01;;;;;;;;;4.00;4.00;;;;;;;;4971689;28;8801;-73
2022/11/13 05:16:26;;;;;;;;;5.00;5.00;;;;;;;;4971259;28;8813;-73
2022/11/13 05:18:52;;;;;;;;;1.50;1.50;;;;;;;;4970926;28;8801;-74
2022/11/13 05:21:17;;;;;;;;;7.50;6.00;;;;;;;;4971334;28;9534;-74
2022/11/13 05:23:43;;;;;;;;;6.75;5.75;;;;;;;;4971401;28;9535;-74
2022/11/13 05:26:10;;;;;;;;;7.00;5.00;;;;;;;;4970883;28;8793;-73
2022/11/13 05:28:37;;;;;;;;;7.50;3.50;;;;;;;;4982728;28;8838;-75
2022/11/13 05:31:06;;;;;;;;;6.00;5.00;;;;;;;;4990208;28;11459;-73
2022/11/13 05:33:32;;;;;;;;;6.75;6.00;;;;;;;;4990240;28;11496;-74
2022/11/13 05:36:05;;;;;;;;;6.75;4.00;;;;;;;;4988701;28;11507;-72
2022/11/13 05:38:31;;;;;;;;;6.00;6.00;;;;;;;;4990384;28;8790;-72
2022/11/13 05:41:10;;;;;;;;;3.75;3.00;;;;;;;;4990390;28;11475;-73
2022/11/13 05:43:36;;;;;;;;;3.00;2.00;;;;;;;;4989147;28;11556;-74
2022/11/13 05:46:02;;;;;;;;;2.50;2.50;;;;;;;;4989912;28;11475;-73
2022/11/13 05:48:28;;;;;;;;;6.25;2.50;;;;;;;;4989894;28;8959;-73
2022/11/13 05:50:53;;;;;;;;;0.00;0.00;;;;;;;;4990003;28;12306;-73
2022/11/13 05:53:18;;;;;;;;;2.50;2.50;;;;;;;;4989044;28;8941;-74
2022/11/13 05:55:43;;;;;;;;;6.75;2.00;;;;;;;;4990336;28;8775;-80
2022/11/13 05:58:10;;;;;;;;;2.25;2.25;;;;;;;;4990124;28;8806;-76
2022/11/13 06:00:36;;;;;;;;;3.00;2.50;;;;;;;;4990083;28;8837;-76
2022/11/13 06:03:01;;;;;;;;;4.50;4.50;;;;;;;;4989493;28;11493;-75
2022/11/13 06:05:26;;;;;;;;;3.50;2.75;;;;;;;;4989977;28;8799;-74
2022/11/13 06:07:52;;;;;;;;;3.00;3.00;;;;;;;;4990055;28;9599;-73
2022/11/13 06:10:17;;;;;;;;;5.00;2.00;;;;;;;;4989819;28;8838;-74
2022/11/13 06:12:42;;;;;;;;;3.00;3.00;;;;;;;;4990195;28;8798;-74
2022/11/13 06:15:08;;;;;;;;;3.00;2.00;;;;;;;;4990003;28;8833;-74
2022/11/13 06:17:33;;;;;;;;;2.00;2.00;;;;;;;;4989759;28;8799;-74
2022/11/13 06:19:59;;;;;;;;;3.00;3.00;;;;;;;;4989740;28;8815;-75
2022/11/13 06:22:24;;;;;;;;;5.00;3.00;;;;;;;;4989656;28;8807;-74
2022/11/13 06:24:50;;;;;;;;;4.00;2.00;;;;;;;;4989898;28;9032;-74
2022/11/13 06:27:15;;;;;;;;;6.00;3.00;;;;;;;;4989978;28;8802;-75
2022/11/13 06:29:40;;;;;;;;;4.00;4.00;;;;;;;;4989836;28;8830;-74
2022/11/13 06:32:06;;;;;;;;;5.00;2.75;;;;;;;;4993066;28;8806;-74
2022/11/13 06:34:31;;;;;;;;;2.75;2.75;;;;;;;;4993798;28;8853;-74
2022/11/13 06:36:56;;;;;;;;;6.00;5.00;;;;;;;;5008342;28;8865;-74
2022/11/13 06:39:22;;;;;;;;;6.00;6.00;;;;;;;;4993501;28;8906;-74
2022/11/13 06:41:47;;;;;;;;;3.50;3.50;;;;;;;;4992995;28;8798;-73
2022/11/13 06:44:12;;;;;;;;;6.00;6.00;;;;;;;;4993432;28;8973;-74
2022/11/13 06:46:38;;;;;;;;;10.75;6.00;;;;;;;;4993151;28;8941;-75
2022/11/13 06:49:03;;;;;;;;;9.50;5.00;;;;;;;;4993080;28;8852;-75
2022/11/13 06:51:29;;;;;;;;;17.50;16.00;;;;;;;;4993307;28;8799;-74
2022/11/13 06:53:55;;;;;;;;;14.00;11.00;;;;;;;;4993008;28;8802;-73
2022/11/13 06:56:21;;;;;;;;;7.75;6.75;;;;;;;;4992961;28;11643;-74
2022/11/13 06:58:46;;;;;;;;;14.50;8.25;;;;;;;;4992515;28;11520;-75
2022/11/13 07:01:13;;;;;;;;;5.00;5.00;;;;;;;;4992981;28;8874;-73
2022/11/13 07:03:39;;;;;;;;;7.00;6.50;;;;;;;;4992946;28;8794;-74
2022/11/13 07:06:05;;;;;;;;;3.00;3.00;;;;;;;;4992839;28;11492;-75
2022/11/13 07:08:31;;;;;;;;;5.25;3.00;;;;;;;;4992675;28;8927;-74
2022/11/13 07:10:56;;;;;;;;;8.50;6.25;;;;;;;;4992810;28;11481;-74
2022/11/13 07:13:23;;;;;;;;;5.00;5.00;;;;;;;;4992869;28;8803;-74
2022/11/13 07:15:48;;;;;;;;;5.25;5.25;;;;;;;;4990910;28;8933;-74
2022/11/13 07:18:13;;;;;;;;;5.25;5.00;;;;;;;;4992309;28;11670;-74
2022/11/13 07:20:39;;;;;;;;;9.00;5.25;;;;;;;;4992330;28;9521;-72
2022/11/13 07:23:04;;;;;;;;;6.50;5.75;;;;;;;;4992044;28;8837;-73
2022/11/13 08:40:17;;;;;;;;;22.25;18.00;;;;;;;;5085112;27;14325;-72
2022/11/13 08:42:42;;;;;;;;;16.00;12.50;;;;;;;;5085698;28;11571;-72
2022/11/13 08:45:08;;;;;;;;;15.50;12.00;;;;;;;;5083460;28;8818;-70
2022/11/13 08:48:15;;;;;;;;;12.50;11.25;;;;;;;;5102593;27;13409;-68
2022/11/13 08:50:40;;;;;;;;;14.50;13.00;;;;;;;;5060383;27;11568;-68
2022/11/13 08:53:06;;;;;;;;;14.75;11.50;;;;;;;;5085980;28;8822;-71
2022/11/13 08:55:32;;;;;;;;;13.50;12.00;;;;;;;;5053164;28;11053;-73
2022/11/13 08:57:58;;;;;;;;;10.25;10.25;;;;;;;;5094841;28;10052;-70
2022/11/13 09:00:24;;;;;;;;;14.00;12.75;;;;;;;;5081900;28;11530;-68
2022/11/13 09:02:52;;;;;;;;;12.25;10.00;;;;;;;;5085184;28;11557;-68
2022/11/13 09:05:18;;;;;;;;;16.25;13.25;;;;;;;;5083215;28;9922;-67
2022/11/13 09:07:43;;;;;;;;;11.50;10.00;;;;;;;;5085098;28;11489;-68
2022/11/13 09:10:08;;;;;;;;;13.00;13.00;;;;;;;;5083269;28;9560;-69
2022/11/13 09:12:34;;;;;;;;;15.00;11.25;;;;;;;;5084833;28;8822;-67
2022/11/13 09:14:59;;;;;;;;;13.25;11.50;;;;;;;;5079992;27;10922;-68
2022/11/13 09:17:24;;;;;;;;;10.00;10.00;;;;;;;;5106928;27;8905;-68
2022/11/13 09:19:50;;;;;;;;;11.50;9.50;;;;;;;;5105915;28;8792;-66
2022/11/13 09:22:15;;;;;;;;;9.00;9.00;;;;;;;;5099751;28;8800;-68
2022/11/13 09:24:40;;;;;;;;;12.50;12.00;;;;;;;;5106015;28;9427;-67
2022/11/13 09:27:06;;;;;;;;;13.50;12.25;;;;;;;;5105771;28;8831;-67
2022/11/13 09:29:34;;;;;;;;;15.00;11.50;;;;;;;;5105923;28;8946;-67
2022/11/13 09:32:00;;;;;;;;;11.25;9.75;;;;;;;;5098994;28;8811;-67
2022/11/13 09:34:26;;;;;;;;;9.00;7.75;;;;;;;;5105532;28;11435;-67
2022/11/13 09:36:51;;;;;;;;;13.50;12.25;;;;;;;;5105766;28;8834;-68
2022/11/13 09:39:17;;;;;;;;;10.75;10.75;;;;;;;;5105498;28;11449;-68
2022/11/13 09:41:48;;;;;;;;;12.50;11.25;;;;;;;;5087474;28;8810;-68
2022/11/13 09:44:33;;;;;;;;;13.75;13.50;;;;;;;;5085408;28;8884;-67
2022/11/13 09:46:58;;;;;;;;;13.50;13.50;;;;;;;;5084497;28;11466;-67
2022/11/13 09:49:34;;;;;;;;;12.25;11.00;;;;;;;;5084913;28;11514;-68
2022/11/13 09:52:21;;;;;;;;;10.50;9.75;;;;;;;;5082677;28;8810;-69
2022/11/13 09:54:47;;;;;;;;;10.75;10.75;;;;;;;;5085042;28;11514;-71
2022/11/13 09:57:15;;;;;;;;;11.50;10.25;;;;;;;;5084926;28;11483;-73
2022/11/13 09:59:43;;;;;;;;;10.50;9.25;;;;;;;;5071143;28;8867;-72
2022/11/13 10:02:15;;;;;;;;;15.00;14.00;;;;;;;;5084225;28;12125;-69
2022/11/13 10:04:47;;;;;;;;;12.25;11.00;;;;;;;;5091813;28;11433;-69
2022/11/13 10:07:25;;;;;;;;;14.50;11.25;;;;;;;;5091664;28;11449;-70
2022/11/13 10:10:08;;;;;;;;;15.75;15.25;;;;;;;;5091858;28;11561;-68
2022/11/13 10:12:34;;;;;;;;;18.50;14.25;;;;;;;;5070618;28;11572;-71
2022/11/13 10:15:02;;;;;;;;;15.75;12.00;;;;;;;;5071545;28;11451;-70
2022/11/13 10:17:27;;;;;;;;;14.00;12.00;;;;;;;;5071276;28;8842;-70
2022/11/13 10:20:00;;;;;;;;;12.50;11.50;;;;;;;;5070958;28;11443;-70
2022/11/13 10:22:28;;;;;;;;;14.75;12.50;;;;;;;;5069924;28;8787;-70
2022/11/13 10:24:57;;;;;;;;;17.75;15.25;;;;;;;;5071363;28;11466;-70
2022/11/13 10:27:22;;;;;;;;;15.25;15.00;;;;;;;;5071090;28;11446;-69
2022/11/13 10:29:48;;;;;;;;;17.25;15.75;;;;;;;;5071395;28;11480;-69
2022/11/13 10:32:19;;;;;;;;;16.50;13.25;;;;;;;;5085087;28;8815;-68
2022/11/13 10:34:47;;;;;;;;;16.00;13.75;;;;;;;;5091097;28;8845;-68
2022/11/13 10:37:12;;;;;;;;;13.00;13.00;;;;;;;;5089718;28;11456;-67
2022/11/13 10:39:41;;;;;;;;;14.75;13.00;;;;;;;;5091073;28;11445;-69
2022/11/13 10:42:39;;;;;;;;;14.25;14.25;;;;;;;;5084660;28;8812;-68
2022/11/13 10:45:12;;;;;;;;;15.25;14.00;;;;;;;;5027945;28;11400;-69
2022/11/13 10:47:42;;;;;;;;;14.25;12.50;;;;;;;;5011176;28;11534;-69
2022/11/13 10:50:09;;;;;;;;;16.00;16.00;;;;;;;;5023691;28;11489;-69
2022/11/13 10:52:42;;;;;;;;;17.00;14.25;;;;;;;;5019970;28;11390;-69
2022/11/13 10:55:13;;;;;;;;;13.00;13.00;;;;;;;;5008564;28;12164;-69
2022/11/13 10:57:39;;;;;;;;;18.50;13.00;;;;;;;;5011451;28;11600;-69
2022/11/13 11:00:22;;;;;;;;;16.25;15.25;;;;;;;;5008792;28;11375;-69
2022/11/13 11:02:48;;;;;;;;;13.50;11.75;;;;;;;;4996277;28;8824;-68
2022/11/13 11:05:18;;;;;;;;;19.75;14.75;;;;;;;;5008011;28;11419;-70
2022/11/13 11:07:44;;;;;;;;;14.25;13.00;;;;;;;;5008091;28;12442;-69
2022/11/13 11:10:21;;;;;;;;;17.50;14.50;;;;;;;;4988271;28;11378;-67
2022/11/13 11:13:19;;;;;;;;;17.50;15.75;;;;;;;;5007005;28;11604;-69
2022/11/13 11:15:49;;;;;;;;;18.50;16.75;;;;;;;;4988740;28;11413;-69
2022/11/13 11:18:14;;;;;;;;;14.25;13.00;;;;;;;;5006240;28;11390;-69
2022/11/13 11:21:00;;;;;;;;;18.75;15.75;;;;;;;;5032116;28;12290;-71
2022/11/13 11:23:40;;;;;;;;;13.75;13.75;;;;;;;;5069330;28;9522;-71
2022/11/13 11:26:11;;;;;;;;;17.25;13.75;;;;;;;;5069184;28;11548;-71
2022/11/13 11:28:39;;;;;;;;;15.50;14.00;;;;;;;;5069195;28;11553;-72
2022/11/13 11:31:11;;;;;;;;;14.00;14.00;;;;;;;;5068110;28;11441;-68
2022/11/13 11:33:42;;;;;;;;;15.75;14.00;;;;;;;;5069081;28;11452;-69
2022/11/13 11:36:08;;;;;;;;;20.25;15.25;;;;;;;;5068880;28;11476;-67
2022/11/13 11:38:44;;;;;;;;;17.00;16.00;;;;;;;;5068710;28;11418;-71
2022/11/13 11:41:11;;;;;;;;;17.50;17.50;;;;;;;;5066152;28;8945;-68
2022/11/13 11:43:41;;;;;;;;;20.00;16.50;;;;;;;;5067259;28;11464;-69
2022/11/13 11:46:13;;;;;;;;;18.00;15.75;;;;;;;;5067906;28;11457;-69
2022/11/13 11:48:39;;;;;;;;;16.75;13.00;;;;;;;;5058850;28;11531;-67
2022/11/13 11:51:04;;;;;;;;;16.75;15.50;;;;;;;;5052970;28;12156;-69
2022/11/13 11:53:35;;;;;;;;;17.75;16.00;;;;;;;;5059377;28;8824;-67
2022/11/13 11:56:07;;;;;;;;;21.50;12.50;;;;;;;;5059018;28;8952;-69
2022/11/13 11:58:42;;;;;;;;;18.00;16.25;;;;;;;;5055691;28;11541;-69
2022/11/13 12:01:20;;;;;;;;;20.50;16.75;;;;;;;;5054715;28;11420;-69
2022/11/13 12:04:04;;;;;;;;;17.25;15.00;;;;;;;;5058572;28;11430;-69
2022/11/13 12:06:35;;;;;;;;;16.25;13.75;;;;;;;;5036152;28;11561;-69
2022/11/13 12:09:07;;;;;;;;;17.75;16.75;;;;;;;;5057193;28;11465;-69
2022/11/13 12:11:33;;;;;;;;;17.50;16.00;;;;;;;;5051144;28;11459;-66
2022/11/13 12:13:58;;;;;;;;;19.75;16.50;;;;;;;;5058238;28;11447;-68
2022/11/13 12:16:24;;;;;;;;;18.75;16.00;;;;;;;;5056592;28;11431;-68
2022/11/13 12:18:55;;;;;;;;;18.00;17.25;;;;;;;;5050203;28;8819;-69
2022/11/13 12:21:20;;;;;;;;;18.00;14.25;;;;;;;;5046510;28;8860;-68
2022/11/13 12:24:01;;;;;;;;;14.00;14.00;;;;;;;;5047895;28;11434;-68
2022/11/13 12:26:35;;;;;;;;;17.75;17.75;;;;;;;;5046212;28;8842;-69
2022/11/13 12:29:19;;;;;;;;;28.25;24.00;;;;;;;;5059002;28;11458;-71
2022/11/13 12:32:03;;;;;;;;;26.50;23.75;;;;;;;;5059147;28;11433;-72
2022/11/13 12:34:32;;;;;;;;;24.50;23.25;;;;;;;;5067862;28;11415;-71
2022/11/13 12:36:58;;;;;;;;;24.00;18.50;;;;;;;;5068488;28;11473;-71
2022/11/13 12:39:26;;;;;;;;;22.00;17.25;;;;;;;;5057956;28;11563;-70
2022/11/13 12:41:55;;;;;;;;;16.00;13.00;;;;;;;;5046150;28;8810;-70
2022/11/13 12:44:28;;;;;;;;;21.50;18.25;;;;;;;;5029328;28;12237;-70
2022/11/13 12:46:55;;;;;;;;;20.50;16.00;;;;;;;;5057685;28;11511;-70
2022/11/13 12:49:26;;;;;;;;;30.50;27.00;;;;;;;;5069296;28;11454;-70
2022/11/13 12:51:55;;;;;;;;;12.75;12.75;;;;;;;;5067246;28;11575;-69
2022/11/13 12:54:34;;;;;;;;;17.75;13.00;;;;;;;;5068709;28;11444;-70
2022/11/13 12:57:12;;;;;;;;;17.00;13.75;;;;;;;;5068378;28;11563;-71
2022/11/13 12:59:44;;;;;;;;;19.75;15.75;;;;;;;;5068406;28;11539;-69
2022/11/13 13:02:12;;;;;;;;;16.50;16.00;;;;;;;;5068190;28;11418;-70
2022/11/13 13:05:13;;;;;;;;;16.50;13.25;;;;;;;;5068430;28;11456;-70
2022/11/13 13:07:44;;;;;;;;;15.50;15.50;;;;;;;;5006274;28;11530;-69
2022/11/13 13:10:19;;;;;;;;;16.50;13.50;;;;;;;;5006300;28;11667;-70
2022/11/13 13:12:48;;;;;;;;;13.50;12.50;;;;;;;;4956673;28;11559;-70
2022/11/13 13:15:25;;;;;;;;;16.00;14.75;;;;;;;;5006933;28;11514;-68
2022/11/13 13:18:10;;;;;;;;;13.00;13.00;;;;;;;;5007946;28;11508;-70
2022/11/13 13:20:39;;;;;;;;;15.75;12.50;;;;;;;;5006451;28;11679;-69
2022/11/13 13:23:06;;;;;;;;;12.00;11.00;;;;;;;;5006279;28;11549;-69
2022/11/13 13:25:32;;;;;;;;;11.00;11.00;;;;;;;;5005105;28;11538;-68
2022/11/13 13:28:20;;;;;;;;;15.50;13.75;;;;;;;;5003561;28;11539;-68
2022/11/13 13:31:00;;;;;;;;;17.00;14.00;;;;;;;;5003703;28;11633;-68
2022/11/13 13:33:47;;;;;;;;;17.75;14.75;;;;;;;;5005097;28;11511;-69
2022/11/13 13:36:27;;;;;;;;;13.25;13.25;;;;;;;;4990984;28;11556;-69
2022/11/13 13:39:13;;;;;;;;;17.00;15.50;;;;;;;;5008659;28;11505;-69
2022/11/13 13:41:55;;;;;;;;;15.00;12.75;;;;;;;;4998616;28;11522;-70
2022/11/13 13:44:32;;;;;;;;;16.25;16.00;;;;;;;;5087919;28;11429;-68
2022/11/13 13:46:57;;;;;;;;;16.75;15.00;;;;;;;;5090962;28;11549;-67
2022/11/13 13:49:24;;;;;;;;;16.25;14.00;;;;;;;;5089947;28;11413;-66
2022/11/13 13:51:54;;;;;;;;;15.75;14.00;;;;;;;;5089886;28;8819;-68
2022/11/13 13:54:26;;;;;;;;;13.75;13.50;;;;;;;;5088123;28;11598;-70
2022/11/13 13:56:53;;;;;;;;;15.25;13.00;;;;;;;;5087244;28;11503;-70
2022/11/13 13:59:20;;;;;;;;;12.25;12.25;;;;;;;;5063620;28;11725;-69
2022/11/13 14:01:53;;;;;;;;;16.00;16.00;;;;;;;;5048913;28;11444;-69
2022/11/13 14:04:20;;;;;;;;;16.50;14.00;;;;;;;;5070463;28;11451;-67
2022/11/13 14:06:50;;;;;;;;;15.75;15.50;;;;;;;;5071245;28;11460;-68
2022/11/13 14:09:23;;;;;;;;;15.00;14.50;;;;;;;;5070812;28;11433;-69
2022/11/13 14:12:05;;;;;;;;;18.50;15.00;;;;;;;;5070101;28;11436;-69
2022/11/13 14:14:30;;;;;;;;;21.00;19.75;;;;;;;;5072396;28;11566;-69
2022/11/13 14:16:59;;;;;;;;;21.75;19.50;;;;;;;;5070739;28;11603;-70
2022/11/13 14:19:25;;;;;;;;;18.75;18.75;;;;;;;;5071244;28;8829;-70
2022/11/13 14:22:01;;;;;;;;;15.25;13.25;;;;;;;;5070811;28;11451;-69
2022/11/13 14:24:32;;;;;;;;;16.00;16.00;;;;;;;;5069841;28;11553;-70
2022/11/13 14:26:58;;;;;;;;;17.00;16.50;;;;;;;;5070900;28;11506;-70
2022/11/13 14:29:33;;;;;;;;;21.00;18.50;;;;;;;;5071201;28;11569;-70
2022/11/13 14:32:10;;;;;;;;;21.00;19.25;;;;;;;;5070645;28;11431;-69
2022/11/13 14:34:35;;;;;;;;;24.50;23.00;;;;;;;;5069483;28;11477;-70
2022/11/13 14:37:19;;;;;;;;;26.50;22.25;;;;;;;;5070463;28;11527;-70
2022/11/13 14:39:46;;;;;;;;;18.00;18.00;;;;;;;;5069001;28;8823;-69
2022/11/13 14:42:19;;;;;;;;;23.50;21.00;;;;;;;;5070730;28;11538;-69
2022/11/13 14:44:44;;;;;;;;;28.50;24.75;;;;;;;;5070423;28;11443;-70
2022/11/13 14:47:23;;;;;;;;;25.00;23.50;;;;;;;;5075903;28;11498;-70
2022/11/13 14:49:49;;;;;;;;;26.00;22.25;;;;;;;;5074047;28;8796;-69
2022/11/13 14:55:27;;;;;;;;;5736.60;2245.60;;;;;;;;4809518;27;78886;-68
2022/11/13 14:57:52;;;;;;;;;38.00;29.00;;;;;;;;4699256;28;38327;-68
2022/11/13 15:00:18;;;;;;;;;29.50;29.50;;;;;;;;5054279;27;27691;-69
2022/11/13 15:02:46;;;;;;;;;30.75;27.75;;;;;;;;5097904;28;14494;-68
2022/11/13 15:05:11;;;;;;;;;32.60;32.00;;;;;;;;5099363;28;13551;-68
2022/11/13 15:07:40;;;;;;;;;26.00;26.00;;;;;;;;5099950;28;13609;-67
2022/11/13 15:10:05;;;;;;;;;30.25;29.75;;;;;;;;5100855;27;13546;-67
2022/11/13 15:12:30;;;;;;;;;41.67;36.00;;;;;;;;5097961;28;14206;-68
2022/11/13 15:14:56;;;;;;;;;26.33;25.33;;;;;;;;5099192;28;13686;-69
2022/11/13 15:17:21;;;;;;;;;29.25;25.00;;;;;;;;5094260;27;13501;-73
2022/11/13 15:19:49;;;;;;;;;28.50;25.00;;;;;;;;5097470;27;13798;-72
2022/11/13 15:22:14;;;;;;;;;28.20;27.00;;;;;;;;5097704;28;13967;-71
2022/11/13 15:24:40;;;;;;;;;49.75;41.00;;;;;;;;5109745;28;13545;-70
2022/11/13 15:27:05;;;;;;;;;32.25;31.50;;;;;;;;5109584;27;14033;-71
2022/11/13 15:29:31;;;;;;;;;37.00;31.00;;;;;;;;5088497;28;14556;-69
2022/11/13 15:31:56;;;;;;;;;20.00;20.00;;;;;;;;5105055;22;13527;-74
2022/11/13 15:34:22;;;;;;;;;28.50;27.50;;;;;;;;5111683;28;13405;-74
2022/11/13 15:36:50;;;;;;;;;33.00;28.50;;;;;;;;5092975;28;13471;-75
2022/11/13 15:39:15;;;;;;;;;28.00;23.50;;;;;;;;5104869;28;13421;-74
2022/11/13 15:41:43;;;;;;;;;27.75;24.25;;;;;;;;5101881;28;14039;-75
2022/11/13 15:44:11;;;;;;;;;25.20;24.20;;;;;;;;5111771;28;13384;-73
2022/11/13 15:46:42;;;;;;;;;22.50;20.00;;;;;;;;5111514;28;13608;-76
2022/11/13 15:49:07;;;;;;;;;24.20;22.00;;;;;;;;5090719;28;14100;-74
2022/11/13 15:51:38;;;;;;;;;35.75;29.25;;;;;;;;5111037;28;13372;-75
2022/11/13 15:54:12;;;;;;;;;31.25;25.75;;;;;;;;5111294;28;13591;-74
2022/11/13 15:56:38;;;;;;;;;27.80;27.80;;;;;;;;5108257;28;14751;-74
2022/11/13 15:59:03;;;;;;;;;21.50;20.75;;;;;;;;5087642;28;14527;-79
2022/11/13 16:01:31;;;;;;;;;18.40;17.00;;;;;;;;5072769;28;13473;-76
2022/11/13 16:04:05;;;;;;;;;20.00;18.00;;;;;;;;5090970;28;13517;-74